Time;durP1;ratioP1;P1;durP2;ratioP2;P2;SDS_P1;SDS_P2;PMS_P1;PMS_P2;Temp;Humidity;BMP_temperature;BMP_pressure;BME280_temperature;BME280_humidity;BME280_pressure;Samples;Min_cycle;Max_cycle;Signal;HPM_P1;HPM_P2
2023/04/23 00:00:11;;;;;;;4.60;4.30;;;14.00;99.90;;;;;;5033713;28;20184;-79
2023/04/23 00:02:37;;;;;;;4.10;3.80;;;14.00;99.90;;;;;;5044499;28;20363;-79
2023/04/23 00:05:05;;;;;;;5.00;4.57;;;14.20;99.90;;;;;;5053807;28;20250;-78
2023/04/23 00:07:32;;;;;;;4.65;4.25;;;14.20;99.90;;;;;;5050708;28;20184;-78
2023/04/23 00:09:59;;;;;;;4.13;3.80;;;14.20;99.90;;;;;;5051921;28;20226;-79
2023/04/23 00:12:26;;;;;;;4.93;3.85;;;14.10;99.90;;;;;;5051051;28;20561;-78
2023/04/23 00:14:52;;;;;;;4.32;3.95;;;14.10;99.90;;;;;;5043881;28;20556;-78
2023/04/23 00:17:18;;;;;;;4.72;4.15;;;14.10;99.90;;;;;;5046609;28;20667;-78
2023/04/23 00:19:44;;;;;;;4.82;4.20;;;14.10;99.90;;;;;;5047179;28;20591;-79
2023/04/23 00:22:12;;;;;;;4.82;4.10;;;14.10;99.90;;;;;;5045836;28;20202;-79
2023/04/23 00:24:38;;;;;;;4.55;4.15;;;14.00;99.90;;;;;;5051360;28;20200;-79
2023/04/23 00:27:05;;;;;;;5.05;4.65;;;13.90;99.90;;;;;;5063569;28;20180;-79
2023/04/23 00:29:30;;;;;;;4.82;4.18;;;13.90;99.90;;;;;;5063326;28;20217;-79
2023/04/23 00:31:56;;;;;;;4.50;4.10;;;13.90;99.90;;;;;;5056229;28;20549;-78
2023/04/23 00:34:22;;;;;;;4.30;3.92;;;13.80;99.90;;;;;;5051329;28;20258;-79
2023/04/23 00:36:47;;;;;;;4.63;4.22;;;13.80;99.90;;;;;;5051987;28;20208;-79
2023/04/23 00:39:13;;;;;;;5.57;4.50;;;13.70;99.90;;;;;;5060422;28;20171;-78
2023/04/23 00:41:40;;;;;;;4.38;3.97;;;13.50;99.90;;;;;;5054835;28;20204;-78
2023/04/23 00:44:06;;;;;;;4.85;4.45;;;13.40;99.90;;;;;;5048893;28;20180;-78
2023/04/23 00:46:31;;;;;;;4.68;4.28;;;13.40;99.90;;;;;;5056572;28;20729;-80
2023/04/23 00:48:58;;;;;;;4.90;4.40;;;13.40;99.90;;;;;;5041261;28;20794;-78
2023/04/23 00:51:25;;;;;;;4.70;4.30;;;13.30;99.90;;;;;;5053666;28;20175;-80
2023/04/23 00:53:51;;;;;;;5.43;4.95;;;13.30;99.90;;;;;;5050882;28;20208;-79
2023/04/23 00:56:17;;;;;;;4.88;4.43;;;13.30;99.90;;;;;;5060612;28;20195;-80
2023/04/23 00:58:43;;;;;;;5.28;4.88;;;13.30;99.90;;;;;;5057300;28;20222;-80
2023/04/23 01:01:11;;;;;;;4.93;4.60;;;13.30;99.90;;;;;;5037515;28;20661;-79
2023/04/23 01:03:39;;;;;;;5.05;4.65;;;13.30;99.90;;;;;;5053824;28;20755;-80
2023/04/23 01:06:05;;;;;;;5.20;4.80;;;13.30;99.90;;;;;;5061491;28;20208;-79
2023/04/23 01:08:32;;;;;;;5.40;4.90;;;13.20;99.90;;;;;;5047996;28;20610;-80
2023/04/23 01:10:59;;;;;;;5.07;4.68;;;13.20;99.90;;;;;;5053046;28;20631;-78
2023/04/23 01:13:28;;;;;;;5.13;4.47;;;13.10;99.90;;;;;;5053081;28;20254;-79
2023/04/23 01:15:54;;;;;;;4.78;4.38;;;13.00;99.90;;;;;;5045738;28;20196;-79
2023/04/23 01:18:20;;;;;;;5.00;4.60;;;13.00;99.90;;;;;;5049493;28;20183;-78
2023/04/23 01:20:46;;;;;;;5.15;4.63;;;13.00;99.90;;;;;;5048231;28;20200;-78
2023/04/23 01:23:11;;;;;;;4.78;4.38;;;13.00;99.90;;;;;;5047455;28;20212;-79
2023/04/23 01:25:37;;;;;;;5.57;5.07;;;13.00;99.90;;;;;;5051678;28;20593;-79
2023/04/23 01:28:05;;;;;;;4.95;4.55;;;12.90;99.90;;;;;;5054536;28;20177;-79
2023/04/23 01:30:32;;;;;;;4.82;4.40;;;12.90;99.90;;;;;;5051207;28;20203;-79
2023/04/23 01:32:58;;;;;;;4.60;4.25;;;13.00;99.90;;;;;;5051932;28;20181;-79
2023/04/23 01:35:24;;;;;;;6.00;4.90;;;12.80;99.90;;;;;;5048851;28;20687;-80
2023/04/23 01:37:51;;;;;;;4.57;4.18;;;12.90;99.90;;;;;;5049811;28;20180;-80
2023/04/23 01:40:17;;;;;;;5.28;4.88;;;12.90;99.90;;;;;;5056283;28;20209;-80
2023/04/23 01:42:43;;;;;;;4.80;4.50;;;12.90;99.90;;;;;;5053446;28;20265;-78
2023/04/23 01:45:09;;;;;;;5.00;4.60;;;12.90;99.90;;;;;;5055443;28;20204;-78
2023/04/23 01:47:35;;;;;;;4.43;4.03;;;12.90;99.90;;;;;;5046939;28;20199;-78
2023/04/23 01:50:01;;;;;;;5.05;4.15;;;12.80;99.90;;;;;;5054234;28;20238;-78
2023/04/23 01:52:26;;;;;;;4.40;4.10;;;12.70;99.90;;;;;;5042718;28;20736;-78
2023/04/23 01:54:53;;;;;;;4.70;3.90;;;12.70;99.90;;;;;;5049430;28;20195;-79
2023/04/23 01:57:25;;;;;;;4.22;3.72;;;12.70;99.90;;;;;;5048005;28;20184;-78
2023/04/23 01:59:51;;;;;;;4.35;4.05;;;12.70;99.90;;;;;;5051821;28;20189;-78
2023/04/23 02:02:17;;;;;;;4.25;3.95;;;12.70;99.90;;;;;;5055921;28;20258;-79
2023/04/23 02:04:44;;;;;;;3.92;3.63;;;12.60;99.90;;;;;;5051402;28;20184;-80
2023/04/23 02:07:10;;;;;;;4.20;3.85;;;12.60;99.90;;;;;;5051040;28;20171;-78
2023/04/23 02:09:36;;;;;;;4.13;3.67;;;12.50;99.90;;;;;;5052766;28;20173;-79
2023/04/23 02:12:02;;;;;;;4.03;3.72;;;12.60;99.90;;;;;;5047826;28;20565;-79
2023/04/23 02:14:28;;;;;;;4.28;3.90;;;12.50;99.90;;;;;;5054353;28;20624;-79
2023/04/23 02:16:55;;;;;;;3.72;3.50;;;12.60;99.90;;;;;;5050418;28;20581;-79
2023/04/23 02:19:21;;;;;;;4.32;4.03;;;12.60;99.90;;;;;;5044559;28;20266;-80
2023/04/23 02:21:46;;;;;;;4.20;3.90;;;12.60;99.90;;;;;;5044514;28;20326;-80
2023/04/23 02:24:12;;;;;;;4.13;3.80;;;12.60;99.90;;;;;;5031562;28;20208;-79
2023/04/23 02:26:37;;;;;;;4.38;3.97;;;12.60;99.90;;;;;;5054898;28;20235;-80
2023/04/23 02:29:03;;;;;;;6.53;4.28;;;12.60;99.90;;;;;;5053647;28;20187;-80
2023/04/23 02:31:29;;;;;;;4.18;3.85;;;12.60;99.90;;;;;;5053490;28;20184;-79
2023/04/23 02:33:55;;;;;;;4.43;4.03;;;12.60;99.90;;;;;;5047968;28;20219;-80
2023/04/23 02:36:20;;;;;;;4.70;4.30;;;12.60;99.90;;;;;;5062903;28;20246;-79
2023/04/23 02:38:48;;;;;;;4.07;3.67;;;12.60;99.90;;;;;;5049368;28;20708;-79
2023/04/23 02:41:13;;;;;;;3.83;3.50;;;12.60;99.90;;;;;;5040408;28;20199;-78
2023/04/23 02:43:39;;;;;;;4.07;3.78;;;12.50;99.90;;;;;;5057061;28;20171;-79
2023/04/23 02:46:08;;;;;;;3.78;3.50;;;12.50;99.90;;;;;;5049293;28;20219;-79
2023/04/23 02:48:39;;;;;;;4.00;3.70;;;12.50;99.90;;;;;;5054510;28;20168;-79
2023/04/23 02:51:06;;;;;;;4.25;3.95;;;12.50;99.90;;;;;;5035058;28;20274;-79
2023/04/23 02:53:32;;;;;;;4.93;4.43;;;12.40;99.90;;;;;;5056036;28;20177;-84
2023/04/23 02:55:58;;;;;;;4.30;4.00;;;12.50;99.90;;;;;;5056483;28;20218;-81
2023/04/23 02:58:26;;;;;;;3.83;3.60;;;12.50;99.90;;;;;;5056712;28;20239;-81
2023/04/23 03:00:52;;;;;;;4.03;3.72;;;12.50;99.90;;;;;;5050706;28;20188;-79
2023/04/23 03:03:17;;;;;;;4.45;4.07;;;12.50;99.90;;;;;;5034763;28;20744;-79
2023/04/23 03:05:43;;;;;;;6.07;4.45;;;12.50;99.90;;;;;;5030716;28;20195;-80
2023/04/23 03:08:08;;;;;;;4.65;4.32;;;12.50;99.90;;;;;;5050558;28;20716;-79
2023/04/23 03:10:34;;;;;;;5.20;4.70;;;12.50;99.90;;;;;;5054780;28;20182;-79
2023/04/23 03:13:00;;;;;;;4.38;3.97;;;12.50;99.90;;;;;;5053810;28;20677;-79
2023/04/23 03:15:26;;;;;;;5.20;4.50;;;12.60;99.90;;;;;;5054268;28;20207;-80
2023/04/23 03:17:52;;;;;;;4.85;4.45;;;12.60;99.90;;;;;;5057219;28;20184;-80
2023/04/23 03:20:18;;;;;;;4.80;4.40;;;12.60;99.90;;;;;;5041600;28;20192;-81
2023/04/23 03:22:44;;;;;;;5.07;4.68;;;12.60;99.90;;;;;;5065881;28;20253;-81
2023/04/23 03:25:11;;;;;;;4.78;4.38;;;12.70;99.90;;;;;;5045692;28;20202;-80
2023/04/23 03:27:39;;;;;;;4.93;4.53;;;12.70;99.90;;;;;;5056837;28;20219;-78
2023/04/23 03:30:07;;;;;;;5.35;4.95;;;12.80;99.90;;;;;;5056637;28;20565;-78
2023/04/23 03:32:33;;;;;;;5.32;4.63;;;12.80;99.90;;;;;;5054048;28;20648;-78
2023/04/23 03:34:59;;;;;;;6.80;4.80;;;12.80;99.90;;;;;;5058475;28;20479;-80
2023/04/23 03:37:26;;;;;;;5.03;4.47;;;12.80;99.90;;;;;;5051074;28;20263;-78
2023/04/23 03:39:51;;;;;;;4.95;4.45;;;12.90;99.90;;;;;;5030329;28;20191;-81
2023/04/23 03:42:17;;;;;;;5.20;4.80;;;12.90;99.90;;;;;;5051828;28;20203;-80
2023/04/23 03:44:42;;;;;;;6.47;5.88;;;12.90;99.90;;;;;;5049245;28;20210;-78
2023/04/23 03:47:08;;;;;;;4.85;4.45;;;12.90;99.90;;;;;;5051880;28;20721;-80
2023/04/23 03:49:34;;;;;;;5.63;5.03;;;12.80;99.90;;;;;;5053220;28;20296;-80
2023/04/23 03:51:59;;;;;;;5.60;5.20;;;12.80;99.90;;;;;;5048171;28;20184;-79
2023/04/23 03:54:27;;;;;;;5.55;5.15;;;12.80;99.90;;;;;;5052102;28;20180;-79
2023/04/23 03:56:53;;;;;;;5.50;4.72;;;12.80;99.90;;;;;;5052214;28;20227;-79
2023/04/23 03:59:19;;;;;;;7.28;4.95;;;12.80;99.90;;;;;;5049068;28;20188;-80
2023/04/23 04:01:47;;;;;;;5.05;4.68;;;12.90;99.90;;;;;;5034984;28;20204;-80
2023/04/23 04:04:13;;;;;;;5.25;4.85;;;12.90;99.90;;;;;;5064884;28;20199;-80
2023/04/23 04:06:39;;;;;;;5.25;4.85;;;12.80;99.90;;;;;;5064022;28;20207;-80
2023/04/23 04:09:07;;;;;;;5.70;5.10;;;12.80;99.90;;;;;;5048298;28;20175;-79
2023/04/23 04:11:32;;;;;;;6.32;4.88;;;12.80;99.90;;;;;;5054733;28;20196;-78
2023/04/23 04:13:58;;;;;;;6.03;5.50;;;12.80;99.90;;;;;;5050358;28;20208;-78
2023/04/23 04:16:24;;;;;;;5.70;5.20;;;12.70;99.90;;;;;;5054959;28;20276;-78
2023/04/23 04:18:49;;;;;;;5.40;4.95;;;12.70;99.90;;;;;;5054921;28;20180;-78
2023/04/23 04:21:16;;;;;;;5.50;5.00;;;12.80;99.90;;;;;;5050160;28;20195;-78
2023/04/23 04:23:42;;;;;;;5.65;5.15;;;12.80;99.90;;;;;;5051622;28;20561;-78
2023/04/23 04:26:08;;;;;;;5.60;5.15;;;12.80;99.90;;;;;;5045495;28;20204;-79
2023/04/23 04:28:36;;;;;;;5.38;4.95;;;12.80;99.90;;;;;;5056696;28;20709;-79
2023/04/23 04:31:05;;;;;;;5.38;4.97;;;12.90;99.90;;;;;;5056623;28;20176;-80
2023/04/23 04:33:32;;;;;;;5.60;5.05;;;12.90;99.90;;;;;;5047216;28;20278;-79
2023/04/23 04:35:59;;;;;;;6.32;5.72;;;13.00;99.90;;;;;;5055284;28;20203;-79
2023/04/23 04:38:25;;;;;;;8.00;5.45;;;12.90;99.90;;;;;;5051907;28;20321;-80
2023/04/23 04:40:54;;;;;;;6.65;6.05;;;13.00;99.90;;;;;;5051701;28;20179;-79
2023/04/23 04:43:19;;;;;;;5.80;5.35;;;12.90;99.90;;;;;;5053428;28;20257;-81
2023/04/23 04:45:45;;;;;;;6.13;5.53;;;13.00;99.90;;;;;;5051175;28;20626;-78
2023/04/23 04:48:11;;;;;;;6.22;5.55;;;12.90;99.90;;;;;;5053863;28;20600;-79
2023/04/23 04:50:36;;;;;;;6.00;5.40;;;12.90;99.90;;;;;;5051199;28;20180;-79
2023/04/23 04:53:02;;;;;;;6.28;5.68;;;12.90;99.90;;;;;;5055514;28;20557;-80
2023/04/23 04:55:27;;;;;;;5.40;4.90;;;13.00;99.90;;;;;;5049245;28;20211;-80
2023/04/23 04:57:53;;;;;;;6.03;5.43;;;13.00;99.90;;;;;;5052711;28;20185;-78
2023/04/23 05:00:21;;;;;;;5.57;5.10;;;13.10;99.90;;;;;;5053746;28;20263;-80
2023/04/23 05:02:51;;;;;;;5.38;4.97;;;13.10;99.90;;;;;;5049898;28;20321;-80
2023/04/23 05:05:17;;;;;;;5.60;5.10;;;13.10;99.90;;;;;;5049893;28;20726;-78
2023/04/23 05:07:43;;;;;;;5.68;5.18;;;13.10;99.90;;;;;;5055213;28;20222;-78
2023/04/23 05:10:09;;;;;;;6.28;5.15;;;13.10;99.90;;;;;;5056015;28;20215;-79
2023/04/23 05:12:36;;;;;;;5.95;5.45;;;13.20;99.90;;;;;;5054739;28;20228;-78
2023/04/23 05:15:03;;;;;;;5.60;4.93;;;13.20;99.90;;;;;;5048440;28;20257;-79
2023/04/23 05:17:28;;;;;;;5.50;4.97;;;13.30;99.90;;;;;;5053293;28;20176;-79
2023/04/23 05:19:54;;;;;;;5.53;5.10;;;13.30;99.90;;;;;;5041852;28;20194;-79
2023/04/23 05:22:20;;;;;;;4.72;4.43;;;13.40;99.90;;;;;;5055268;28;20206;-79
2023/04/23 05:24:45;;;;;;;7.28;5.47;;;13.40;99.90;;;;;;5056918;28;20665;-79
2023/04/23 05:27:11;;;;;;;5.38;4.97;;;13.50;99.90;;;;;;5057556;28;20182;-78
2023/04/23 05:29:36;;;;;;;3.03;2.83;;;13.50;99.90;;;;;;5057389;28;20649;-79
2023/04/23 05:32:02;;;;;;;4.88;2.50;;;13.70;99.90;;;;;;5057842;28;20231;-80
2023/04/23 05:34:28;;;;;;;2.08;1.98;;;13.80;99.90;;;;;;5058866;28;20212;-80
2023/04/23 05:36:53;;;;;;;2.53;2.42;;;13.90;99.90;;;;;;5044150;28;20195;-79
2023/04/23 05:39:19;;;;;;;3.47;2.35;;;14.00;99.90;;;;;;5052309;28;20278;-78
2023/04/23 05:41:44;;;;;;;2.50;2.30;;;14.00;99.90;;;;;;5054289;28;20289;-78
2023/04/23 05:44:10;;;;;;;4.20;2.35;;;14.00;99.90;;;;;;5054160;28;20183;-78
2023/04/23 05:46:37;;;;;;;3.88;2.45;;;14.00;99.90;;;;;;5060636;28;20196;-78
2023/04/23 05:49:03;;;;;;;2.53;2.08;;;14.00;99.90;;;;;;5055973;28;20180;-76
2023/04/23 05:51:28;;;;;;;2.08;1.77;;;14.10;99.90;;;;;;5051058;28;20199;-77
2023/04/23 05:53:54;;;;;;;2.63;2.05;;;14.20;99.90;;;;;;5049671;28;20638;-78
2023/04/23 05:56:20;;;;;;;2.20;2.00;;;14.30;99.90;;;;;;5047975;28;20203;-81
2023/04/23 05:58:46;;;;;;;1.85;1.75;;;14.20;99.90;;;;;;5068167;28;20188;-81
2023/04/23 06:01:12;;;;;;;2.35;2.13;;;14.20;99.90;;;;;;5053354;28;20200;-82
2023/04/23 06:03:41;;;;;;;2.78;1.90;;;14.10;99.90;;;;;;5060318;28;20211;-82
2023/04/23 06:06:07;;;;;;;4.68;2.15;;;14.20;99.90;;;;;;5067654;28;20196;-81
2023/04/23 06:08:32;;;;;;;2.10;1.90;;;14.20;99.90;;;;;;5045021;28;20184;-81
2023/04/23 06:10:58;;;;;;;2.17;1.90;;;14.20;99.90;;;;;;5050066;28;20195;-81
2023/04/23 06:13:25;;;;;;;2.10;1.98;;;14.20;99.90;;;;;;5055662;28;20180;-81
2023/04/23 06:15:51;;;;;;;2.13;1.67;;;14.20;99.90;;;;;;5053047;28;20204;-80
2023/04/23 06:18:16;;;;;;;2.05;1.92;;;14.20;99.90;;;;;;5050881;28;20190;-82
2023/04/23 06:20:43;;;;;;;2.55;1.83;;;14.20;99.90;;;;;;5069967;28;20293;-80
2023/04/23 06:23:11;;;;;;;1.90;1.80;;;14.20;99.90;;;;;;5047920;28;20223;-79
2023/04/23 06:25:36;;;;;;;3.10;1.80;;;14.10;99.90;;;;;;5061528;28;20188;-82
2023/04/23 06:28:02;;;;;;;1.60;1.50;;;13.90;99.90;;;;;;5051400;28;20283;-83
2023/04/23 06:30:28;;;;;;;2.65;1.70;;;13.80;99.90;;;;;;5045669;28;20248;-83
2023/04/23 06:33:00;;;;;;;1.83;1.58;;;13.80;99.90;;;;;;5071421;28;20184;-82
2023/04/23 06:35:26;;;;;;;1.70;1.60;;;13.90;99.90;;;;;;5051255;28;20204;-78
2023/04/23 06:37:52;;;;;;;1.27;1.27;;;14.10;99.90;;;;;;5053462;28;20190;-79
2023/04/23 06:40:17;;;;;;;1.70;1.63;;;14.40;99.90;;;;;;5054173;28;20659;-77
2023/04/23 06:42:44;;;;;;;1.90;1.80;;;14.60;99.90;;;;;;5045690;28;20257;-77
2023/04/23 06:45:10;;;;;;;1.27;1.17;;;14.80;99.90;;;;;;5037145;28;20199;-76
2023/04/23 06:47:36;;;;;;;1.48;1.38;;;14.80;99.90;;;;;;5052469;28;20191;-76
2023/04/23 06:50:02;;;;;;;1.50;1.35;;;14.80;99.90;;;;;;5053504;28;20171;-79
2023/04/23 06:52:27;;;;;;;1.40;1.40;;;14.90;99.90;;;;;;5054930;28;20534;-80
2023/04/23 06:54:53;;;;;;;2.30;1.02;;;14.90;99.90;;;;;;5044689;28;20195;-81
2023/04/23 06:57:21;;;;;;;1.30;1.15;;;14.80;99.90;;;;;;5042765;28;20238;-79
2023/04/23 06:59:46;;;;;;;1.48;1.38;;;14.80;99.90;;;;;;5051898;28;20233;-79
2023/04/23 07:02:12;;;;;;;1.27;1.27;;;14.90;99.90;;;;;;5057939;28;20219;-79
2023/04/23 07:04:38;;;;;;;1.30;1.20;;;14.90;99.90;;;;;;5050598;28;20186;-76
2023/04/23 07:07:03;;;;;;;2.35;1.30;;;14.90;99.90;;;;;;5044601;28;20667;-76
2023/04/23 07:09:29;;;;;;;1.15;1.08;;;14.90;99.90;;;;;;5054813;28;20210;-74
2023/04/23 07:11:55;;;;;;;1.23;1.20;;;14.80;99.90;;;;;;5041219;28;20547;-75
2023/04/23 07:14:21;;;;;;;1.35;1.25;;;15.00;99.90;;;;;;5055759;28;20183;-75
2023/04/23 07:16:46;;;;;;;1.20;1.10;;;15.00;99.90;;;;;;5053094;28;20203;-74
2023/04/23 07:19:12;;;;;;;1.50;1.40;;;15.20;99.90;;;;;;5048194;28;20187;-72
2023/04/23 07:21:37;;;;;;;0.93;0.93;;;15.10;99.90;;;;;;5048083;28;20222;-74
2023/04/23 07:24:05;;;;;;;2.05;1.13;;;14.90;99.90;;;;;;5048793;28;20240;-75
2023/04/23 07:26:32;;;;;;;1.33;1.23;;;14.80;99.90;;;;;;5055392;28;20249;-75
2023/04/23 07:28:58;;;;;;;2.70;1.13;;;14.70;99.90;;;;;;5048939;28;20549;-74
2023/04/23 07:31:23;;;;;;;1.70;1.55;;;14.60;99.90;;;;;;5059215;28;20171;-75
2023/04/23 07:33:49;;;;;;;1.25;1.25;;;14.60;99.90;;;;;;5052780;28;20187;-78
2023/04/23 07:36:15;;;;;;;2.22;1.15;;;14.70;99.90;;;;;;5037549;28;20210;-74
2023/04/23 07:38:41;;;;;;;1.33;1.23;;;14.60;99.90;;;;;;5046014;28;20210;-74
2023/04/23 07:41:07;;;;;;;1.20;1.20;;;14.70;99.90;;;;;;5052372;28;20195;-73
2023/04/23 07:43:32;;;;;;;1.10;1.10;;;14.50;99.90;;;;;;5049941;28;20234;-74
2023/04/23 07:45:58;;;;;;;1.30;1.20;;;14.50;99.90;;;;;;5047385;28;21152;-73
2023/04/23 07:48:24;;;;;;;1.50;1.42;;;14.30;99.90;;;;;;5049852;28;20184;-75
2023/04/23 07:50:50;;;;;;;2.30;1.70;;;14.00;99.90;;;;;;5036289;28;20195;-73
2023/04/23 07:53:15;;;;;;;1.92;1.77;;;13.50;99.90;;;;;;5046275;28;20184;-72
2023/04/23 07:55:41;;;;;;;1.92;1.80;;;13.40;99.90;;;;;;5051189;28;20288;-74
2023/04/23 07:58:06;;;;;;;1.73;1.63;;;13.10;99.90;;;;;;5045729;28;20224;-74
2023/04/23 08:00:32;;;;;;;1.50;1.45;;;13.00;99.90;;;;;;5045480;28;20192;-73
2023/04/23 08:02:58;;;;;;;1.90;1.80;;;12.70;99.90;;;;;;5047283;28;20721;-73
2023/04/23 08:05:25;;;;;;;2.05;1.95;;;12.70;99.90;;;;;;5053200;28;20219;-73
2023/04/23 08:07:51;;;;;;;1.70;1.60;;;12.80;99.90;;;;;;5047681;28;20176;-74
2023/04/23 08:10:16;;;;;;;1.55;1.55;;;12.80;99.90;;;;;;5045267;28;20183;-74
2023/04/23 08:12:43;;;;;;;1.73;1.63;;;12.70;99.90;;;;;;5046757;28;20195;-73
2023/04/23 08:15:09;;;;;;;2.00;1.90;;;12.70;99.90;;;;;;5046099;28;20235;-72
2023/04/23 08:17:35;;;;;;;1.65;1.58;;;12.90;99.90;;;;;;5051009;28;20263;-73
2023/04/23 08:20:02;;;;;;;2.75;1.67;;;12.70;99.90;;;;;;5047054;28;20251;-74
2023/04/23 08:22:28;;;;;;;2.17;2.08;;;12.80;99.90;;;;;;5048058;28;20577;-74
2023/04/23 08:24:53;;;;;;;2.20;2.00;;;12.80;99.90;;;;;;5049893;28;20184;-72
2023/04/23 08:27:19;;;;;;;1.73;1.70;;;12.80;99.90;;;;;;5045797;28;20184;-75
2023/04/23 08:29:45;;;;;;;2.10;1.90;;;12.60;99.90;;;;;;5046691;28;20181;-74
2023/04/23 08:32:11;;;;;;;4.55;2.33;;;12.60;99.90;;;;;;5054345;28;20184;-74
2023/04/23 08:34:37;;;;;;;3.42;1.60;;;12.70;99.90;;;;;;5042475;28;20187;-73
2023/04/23 08:37:03;;;;;;;1.98;1.88;;;12.70;99.90;;;;;;5031980;28;20184;-72
2023/04/23 08:39:31;;;;;;;3.60;2.45;;;12.80;99.90;;;;;;5046788;28;20176;-74
2023/04/23 08:42:12;;;;;;;2.17;2.08;;;12.80;99.90;;;;;;5050433;28;20200;-75
2023/04/23 08:44:41;;;;;;;3.22;2.17;;;12.70;99.90;;;;;;5047110;28;20179;-74
2023/04/23 08:47:11;;;;;;;4.43;2.92;;;12.70;99.90;;;;;;5050624;28;20236;-72
2023/04/23 08:49:40;;;;;;;3.40;2.70;;;12.90;99.90;;;;;;5049514;28;20588;-76
2023/04/23 08:52:17;;;;;;;4.15;2.72;;;13.00;99.90;;;;;;5056224;28;20183;-75
2023/04/23 08:54:48;;;;;;;4.60;2.90;;;13.10;99.90;;;;;;5048773;28;20269;-76
2023/04/23 08:57:16;;;;;;;4.05;2.70;;;13.10;99.90;;;;;;5050644;28;20184;-74
2023/04/23 08:59:43;;;;;;;4.40;3.05;;;13.10;99.90;;;;;;5036511;28;20275;-77
2023/04/23 09:02:09;;;;;;;2.38;2.17;;;13.30;99.90;;;;;;5055006;28;20200;-75
2023/04/23 09:04:40;;;;;;;3.25;2.53;;;13.40;99.90;;;;;;5047598;28;20697;-77
2023/04/23 09:07:10;;;;;;;2.67;2.58;;;13.60;99.90;;;;;;5055366;28;20195;-78
2023/04/23 09:09:40;;;;;;;2.15;2.05;;;13.00;99.90;;;;;;5060855;28;20266;-77
2023/04/23 09:12:07;;;;;;;2.88;2.05;;;13.10;99.90;;;;;;5054705;28;20191;-80
2023/04/23 09:14:36;;;;;;;4.30;2.40;;;13.20;99.90;;;;;;5036029;28;20601;-78
2023/04/23 09:17:02;;;;;;;3.60;2.20;;;13.30;99.90;;;;;;5048809;28;20213;-75
2023/04/23 09:19:29;;;;;;;2.28;2.08;;;13.20;99.90;;;;;;5054153;28;20180;-79
2023/04/23 09:21:56;;;;;;;2.78;2.33;;;13.00;99.90;;;;;;5050725;28;20261;-76
2023/04/23 09:24:23;;;;;;;2.10;2.00;;;12.90;99.90;;;;;;5047641;28;20180;-78
2023/04/23 09:26:50;;;;;;;2.45;2.25;;;12.70;99.90;;;;;;5050343;28;20220;-75
2023/04/23 09:29:22;;;;;;;3.05;2.30;;;12.60;99.90;;;;;;5049408;28;20176;-75
2023/04/23 09:31:53;;;;;;;2.30;2.20;;;12.50;99.90;;;;;;5046188;28;20554;-76
2023/04/23 09:34:23;;;;;;;2.35;1.90;;;12.60;99.90;;;;;;5052762;28;20563;-77
2023/04/23 09:36:50;;;;;;;2.20;1.98;;;12.70;99.90;;;;;;5045694;28;20254;-76
2023/04/23 09:39:22;;;;;;;2.78;2.58;;;12.80;99.90;;;;;;5050765;28;20180;-76
2023/04/23 09:41:49;;;;;;;2.60;2.40;;;12.90;99.90;;;;;;5048449;28;20225;-76
2023/04/23 09:44:23;;;;;;;2.78;2.53;;;13.10;99.90;;;;;;5037485;28;20665;-75
2023/04/23 09:46:48;;;;;;;2.58;2.25;;;13.50;99.90;;;;;;5056952;28;20219;-76
2023/04/23 09:49:14;;;;;;;2.20;2.10;;;13.80;99.90;;;;;;5047950;28;20184;-76
2023/04/23 09:51:43;;;;;;;2.60;2.50;;;14.00;99.90;;;;;;5054749;28;20176;-76
2023/04/23 09:54:13;;;;;;;2.28;2.17;;;14.40;99.90;;;;;;5052607;28;20191;-76
2023/04/23 09:56:39;;;;;;;2.35;2.13;;;14.70;99.90;;;;;;5048378;28;20196;-76
2023/04/23 09:59:27;;;;;;;2.75;2.42;;;14.70;99.90;;;;;;5048089;28;20180;-78
2023/04/23 10:01:53;;;;;;;2.33;2.22;;;14.70;99.90;;;;;;5035888;28;20683;-77
2023/04/23 10:04:21;;;;;;;2.58;2.38;;;14.60;99.90;;;;;;5046984;28;20212;-76
2023/04/23 10:06:57;;;;;;;2.70;2.60;;;14.50;99.90;;;;;;5050730;28;20200;-77
2023/04/23 10:09:24;;;;;;;3.22;2.92;;;14.50;99.90;;;;;;5049987;28;20271;-77
2023/04/23 10:12:09;;;;;;;2.50;2.30;;;14.60;99.90;;;;;;5052762;28;20176;-77
2023/04/23 10:14:37;;;;;;;3.20;3.00;;;14.60;99.90;;;;;;5039205;28;20186;-77
2023/04/23 10:17:03;;;;;;;2.63;2.42;;;14.50;99.90;;;;;;5049715;28;20180;-75
2023/04/23 10:19:31;;;;;;;2.47;2.10;;;14.60;99.90;;;;;;5054212;28;20691;-76
2023/04/23 10:22:04;;;;;;;2.05;1.95;;;14.60;99.90;;;;;;5047409;28;20218;-75
2023/04/23 10:24:32;;;;;;;1.98;1.88;;;14.70;99.90;;;;;;5049742;28;20187;-76
2023/04/23 10:27:04;;;;;;;3.53;3.00;;;14.50;99.90;;;;;;5046717;28;20695;-76
2023/04/23 10:29:34;;;;;;;2.42;2.22;;;14.80;99.90;;;;;;5054550;28;20187;-76
2023/04/23 10:32:02;;;;;;;2.15;2.05;;;14.80;99.90;;;;;;5050314;28;20242;-76
2023/04/23 10:34:29;;;;;;;3.28;2.50;;;14.90;99.90;;;;;;5044462;28;20252;-76
2023/04/23 10:36:58;;;;;;;2.83;1.90;;;14.70;99.90;;;;;;5044490;28;20212;-81
2023/04/23 10:39:26;;;;;;;2.35;2.25;;;14.70;99.90;;;;;;5046460;28;20309;-73
2023/04/23 10:41:53;;;;;;;3.38;3.17;;;14.80;99.90;;;;;;5049398;28;20218;-73
2023/04/23 10:44:22;;;;;;;3.22;3.03;;;14.80;99.90;;;;;;5051589;28;20195;-73
2023/04/23 10:46:53;;;;;;;5.05;4.65;;;15.00;99.90;;;;;;5053992;28;21041;-76
2023/04/23 10:49:22;;;;;;;3.58;3.38;;;15.10;99.90;;;;;;5034949;28;20233;-74
2023/04/23 10:51:48;;;;;;;3.65;3.38;;;15.00;99.90;;;;;;5046588;28;20183;-72
2023/04/23 10:54:15;;;;;;;3.85;3.65;;;15.00;99.90;;;;;;5052161;28;20738;-72
2023/04/23 10:56:42;;;;;;;3.63;3.42;;;15.00;99.90;;;;;;5055834;28;20203;-72
2023/04/23 10:59:21;;;;;;;4.22;4.03;;;15.00;99.90;;;;;;5048392;28;20186;-72
2023/04/23 11:01:48;;;;;;;4.53;3.83;;;15.20;99.90;;;;;;5050324;28;20183;-73
2023/04/23 11:04:28;;;;;;;4.57;4.28;;;15.30;99.90;;;;;;5044085;28;20199;-73
2023/04/23 11:07:04;;;;;;;4.25;4.05;;;15.40;99.90;;;;;;5044468;28;20231;-73
2023/04/23 11:09:43;;;;;;;4.30;4.10;;;15.70;99.90;;;;;;5054242;28;20171;-73
2023/04/23 11:12:32;;;;;;;3.72;3.42;;;16.00;99.90;;;;;;5046447;28;20575;-73
2023/04/23 11:14:58;;;;;;;4.07;3.70;;;16.50;99.90;;;;;;5035343;28;20306;-74
2023/04/23 11:17:46;;;;;;;4.32;4.05;;;16.70;99.90;;;;;;5050362;28;20187;-74
2023/04/23 11:20:15;;;;;;;3.10;2.90;;;16.90;99.90;;;;;;5048650;28;20223;-73
2023/04/23 11:22:47;;;;;;;3.20;3.00;;;17.00;99.90;;;;;;5051514;28;20629;-73
2023/04/23 11:25:24;;;;;;;2.95;2.85;;;17.00;99.90;;;;;;5031951;28;20207;-73
2023/04/23 11:27:51;;;;;;;2.90;2.80;;;17.30;99.90;;;;;;5049892;28;20232;-72
2023/04/23 11:30:19;;;;;;;3.08;2.97;;;17.50;99.90;;;;;;5031682;28;20175;-72
2023/04/23 11:32:47;;;;;;;2.72;2.60;;;17.60;99.90;;;;;;5049302;28;20183;-73
2023/04/23 11:35:14;;;;;;;2.55;2.45;;;18.10;99.90;;;;;;5050062;28;20204;-73
2023/04/23 11:37:41;;;;;;;2.38;2.30;;;19.10;99.90;;;;;;5053108;28;20190;-73
2023/04/23 11:40:09;;;;;;;2.50;2.40;;;19.70;99.90;;;;;;5046883;28;20266;-73
2023/04/23 11:42:46;;;;;;;2.00;1.90;;;20.50;99.90;;;;;;5044004;28;20329;-73
2023/04/23 11:45:22;;;;;;;2.45;2.35;;;21.00;99.90;;;;;;5047747;28;20203;-73
2023/04/23 11:47:52;;;;;;;2.20;2.10;;;21.50;99.90;;;;;;5044261;28;20194;-74
2023/04/23 11:50:25;;;;;;;2.20;2.10;;;22.50;99.90;;;;;;5048370;28;20514;-74
2023/04/23 11:52:51;;;;;;;2.00;1.80;;;23.50;99.90;;;;;;5048861;28;20655;-74
2023/04/23 11:55:17;;;;;;;1.83;1.83;;;24.80;97.00;;;;;;5045145;28;20210;-73
2023/04/23 11:57:45;;;;;;;1.90;1.83;;;25.30;95.80;;;;;;5032012;28;20179;-74
2023/04/23 12:00:17;;;;;;;1.90;1.80;;;26.70;87.80;;;;;;5046582;28;20183;-72
2023/04/23 12:03:00;;;;;;;1.70;1.70;;;27.80;86.80;;;;;;5046936;28;20248;-72
2023/04/23 12:05:29;;;;;;;1.40;1.40;;;27.50;83.40;;;;;;5044398;28;20682;-72
2023/04/23 12:08:08;;;;;;;1.70;1.70;;;26.80;81.50;;;;;;5035217;28;20206;-72
2023/04/23 12:10:42;;;;;;;1.90;1.80;;;26.60;83.50;;;;;;5052336;28;20662;-73
2023/04/23 12:13:13;;;;;;;2.00;1.90;;;28.10;81.10;;;;;;5048601;28;20194;-73
2023/04/23 12:15:52;;;;;;;1.58;1.50;;;26.40;81.20;;;;;;5049532;28;20297;-73
2023/04/23 12:18:18;;;;;;;1.38;1.38;;;27.80;79.30;;;;;;5034548;28;20187;-72
2023/04/23 12:20:45;;;;;;;1.55;1.48;;;29.30;74.60;;;;;;5049018;28;20650;-73
2023/04/23 12:23:10;;;;;;;1.30;1.30;;;29.90;66.30;;;;;;5046529;28;20215;-72
2023/04/23 12:25:39;;;;;;;1.30;1.30;;;29.30;66.00;;;;;;5055391;28;20249;-72
2023/04/23 12:28:06;;;;;;;1.80;1.70;;;28.80;67.80;;;;;;5039674;28;20171;-72
2023/04/23 12:30:33;;;;;;;1.33;1.30;;;28.90;67.00;;;;;;5048688;28;20175;-73
2023/04/23 12:32:59;;;;;;;1.48;1.42;;;28.90;68.80;;;;;;5051902;28;20191;-73
2023/04/23 12:35:42;;;;;;;2.00;1.90;;;28.70;70.00;;;;;;5057634;28;20215;-71
2023/04/23 12:38:24;;;;;;;1.38;1.27;;;30.30;63.30;;;;;;5054026;28;20179;-70
2023/04/23 12:40:51;;;;;;;1.15;1.15;;;29.80;65.60;;;;;;5032575;28;20183;-70
2023/04/23 12:43:16;;;;;;;0.82;0.82;;;30.50;62.70;;;;;;5051673;28;20293;-70
2023/04/23 12:45:42;;;;;;;1.30;1.30;;;29.40;60.90;;;;;;5050078;28;20669;-70
2023/04/23 12:48:07;;;;;;;0.90;0.90;;;27.60;66.00;;;;;;5048826;28;20180;-70